Time;durP1;ratioP1;P1;durP2;ratioP2;P2;SDS_P1;SDS_P2;PMS_P1;PMS_P2;Temp;Humidity;BMP_temperature;BMP_pressure;BME280_temperature;BME280_humidity;BME280_pressure;Samples;Min_cycle;Max_cycle;Signal;HPM_P1;HPM_P2
2020/12/31 00:00:07;;;;;;;0.20;0.10;;;;;;;4.47;100.00;99334.34;4977384;28;20453;-52
2020/12/31 00:02:33;;;;;;;0.20;0.10;;;;;;;4.47;100.00;99331.72;4992683;28;20461;-51
2020/12/31 00:04:59;;;;;;;0.20;0.10;;;;;;;4.43;100.00;99331.81;4994385;28;20492;-52
2020/12/31 00:07:25;;;;;;;0.30;0.30;;;;;;;4.50;100.00;99322.03;4993254;28;20896;-52
2020/12/31 00:09:51;;;;;;;0.20;0.10;;;;;;;4.38;100.00;99326.63;4994062;28;20449;-52
2020/12/31 00:12:18;;;;;;;0.20;0.10;;;;;;;4.35;100.00;99324.06;4976821;28;20450;-53
2020/12/31 00:14:44;;;;;;;0.20;0.10;;;;;;;4.39;100.00;99317.88;4994466;28;20828;-52
2020/12/31 00:17:10;;;;;;;0.20;0.10;;;;;;;4.55;100.00;99315.78;4992266;28;21021;-52
2020/12/31 00:19:37;;;;;;;0.20;0.10;;;;;;;4.46;100.00;99313.34;4988348;28;20461;-52
2020/12/31 00:22:03;;;;;;;0.20;0.10;;;;;;;4.41;100.00;99318.69;4979146;28;20457;-52
2020/12/31 00:24:29;;;;;;;0.20;0.10;;;;;;;4.37;100.00;99319.63;4985652;28;20489;-52
2020/12/31 00:26:55;;;;;;;0.20;0.20;;;;;;;4.39;100.00;99304.72;4983143;28;20998;-52
2020/12/31 00:29:21;;;;;;;0.20;0.10;;;;;;;4.40;100.00;99314.34;4994214;28;20454;-53
2020/12/31 00:31:47;;;;;;;0.20;0.20;;;;;;;4.38;100.00;99308.22;4990048;28;20465;-52
2020/12/31 00:34:13;;;;;;;0.20;0.10;;;;;;;4.30;100.00;99296.13;4976982;28;20456;-52
2020/12/31 00:36:46;;;;;;;0.20;0.10;;;;;;;4.35;100.00;99305.66;4992266;28;20532;-52
2020/12/31 00:39:13;;;;;;;0.20;0.10;;;;;;;4.31;100.00;99303.13;4993587;28;20825;-52
2020/12/31 00:41:39;;;;;;;0.20;0.10;;;;;;;4.46;100.00;99306.31;4993779;28;20460;-52
2020/12/31 00:44:11;;;;;;;0.20;0.10;;;;;;;4.51;100.00;99307.97;4993527;28;20446;-52
2020/12/31 00:46:37;;;;;;;0.20;0.20;;;;;;;4.35;100.00;99316.16;4988315;28;20850;-52
2020/12/31 00:49:03;;;;;;;0.20;0.10;;;;;;;4.37;100.00;99319.63;4993436;28;20848;-52
2020/12/31 00:51:30;;;;;;;0.20;0.10;;;;;;;4.44;100.00;99313.38;4990078;28;20461;-53
2020/12/31 00:53:56;;;;;;;0.20;0.20;;;;;;;4.32;100.00;99312.75;4990313;28;20466;-52
2020/12/31 00:56:22;;;;;;;0.20;0.10;;;;;;;4.33;100.00;99310.06;4993242;28;20450;-52
2020/12/31 00:58:49;;;;;;;0.20;0.10;;;;;;;4.25;100.00;99300.59;4993825;28;20454;-52
2020/12/31 01:01:15;;;;;;;0.20;0.10;;;;;;;4.26;100.00;99311.09;4976297;28;20453;-52
2020/12/31 01:03:41;;;;;;;0.20;0.10;;;;;;;4.35;100.00;99310.03;4967045;28;20469;-52
2020/12/31 01:06:07;;;;;;;0.20;0.20;;;;;;;4.27;100.00;99318.09;4976020;28;20492;-52
2020/12/31 01:08:40;;;;;;;0.20;0.10;;;;;;;4.29;100.00;99318.06;4993622;28;20476;-52
2020/12/31 01:11:08;;;;;;;0.20;0.20;;;;;;;4.22;100.00;99309.41;4993170;28;20450;-52
2020/12/31 01:13:36;;;;;;;0.20;0.10;;;;;;;4.31;100.00;99309.25;4993167;28;20456;-52
2020/12/31 01:16:14;;;;;;;0.93;0.90;;;;;;;4.49;100.00;99312.41;4991500;28;20476;-52
2020/12/31 01:18:44;;;;;;;0.20;0.10;;;;;;;4.37;100.00;99311.75;4984579;28;20453;-50
2020/12/31 01:21:10;;;;;;;0.20;0.20;;;;;;;4.25;100.00;99316.38;4979522;28;20454;-51
2020/12/31 01:23:37;;;;;;;0.20;0.10;;;;;;;4.27;100.00;99312.84;4982413;28;20878;-50
2020/12/31 01:26:04;;;;;;;0.20;0.10;;;;;;;4.21;100.00;99306.81;4987893;28;20489;-50
2020/12/31 01:28:30;;;;;;;0.20;0.10;;;;;;;4.26;100.00;99304.97;4990300;28;20473;-50
2020/12/31 01:30:56;;;;;;;0.20;0.20;;;;;;;4.32;100.00;99299.59;4993244;28;20476;-50
2020/12/31 01:33:22;;;;;;;0.20;0.10;;;;;;;4.28;100.00;99295.28;4993233;28;20512;-51
2020/12/31 01:35:48;;;;;;;0.20;0.10;;;;;;;4.21;100.00;99298.91;4997465;28;20449;-50
2020/12/31 01:38:14;;;;;;;0.20;0.10;;;;;;;4.15;100.00;99299.91;4988079;28;20865;-50
2020/12/31 01:40:46;;;;;;;1.07;1.07;;;;;;;4.04;100.00;99294.84;4997346;28;20484;-50
2020/12/31 01:43:13;;;;;;;0.20;0.10;;;;;;;4.07;100.00;99293.91;4995478;28;21111;-50
2020/12/31 01:45:39;;;;;;;0.20;0.10;;;;;;;3.96;100.00;99296.72;4995679;28;20485;-51
2020/12/31 01:48:05;;;;;;;0.20;0.20;;;;;;;4.03;100.00;99287.84;4996988;28;21069;-50
2020/12/31 01:50:31;;;;;;;0.20;0.10;;;;;;;3.99;100.00;99290.56;4995958;28;20477;-53
2020/12/31 01:52:57;;;;;;;0.70;0.70;;;;;;;3.96;100.00;99280.97;4993669;28;20507;-51
2020/12/31 01:55:23;;;;;;;0.20;0.10;;;;;;;3.93;100.00;99285.41;4996986;28;20460;-52
2020/12/31 01:57:52;;;;;;;0.20;0.10;;;;;;;3.88;100.00;99280.25;4997099;28;20473;-52
2020/12/31 02:00:18;;;;;;;0.20;0.10;;;;;;;3.75;100.00;99282.22;4996991;28;20454;-53
2020/12/31 02:02:44;;;;;;;0.20;0.10;;;;;;;3.70;100.00;99270.94;4991037;28;20467;-52
2020/12/31 02:05:10;;;;;;;0.20;0.10;;;;;;;3.67;100.00;99268.34;4995901;28;20498;-52
2020/12/31 02:07:36;;;;;;;0.20;0.10;;;;;;;3.62;100.00;99275.44;4996852;28;20480;-52
2020/12/31 02:10:03;;;;;;;0.20;0.10;;;;;;;3.71;100.00;99275.28;4997107;28;20506;-51
2020/12/31 02:12:32;;;;;;;0.83;0.83;;;;;;;3.71;100.00;99271.81;4996533;28;20846;-52
2020/12/31 02:14:58;;;;;;;0.20;0.10;;;;;;;3.68;100.00;99277.09;4996603;28;20504;-52
2020/12/31 02:17:24;;;;;;;0.20;0.10;;;;;;;3.69;100.00;99278.81;4994474;28;20508;-53
2020/12/31 02:19:50;;;;;;;0.20;0.10;;;;;;;3.68;100.00;99270.06;4992448;28;20517;-52
2020/12/31 02:22:17;;;;;;;0.30;0.20;;;;;;;3.69;100.00;99278.81;4982330;28;20868;-52
2020/12/31 02:24:44;;;;;;;0.20;0.20;;;;;;;3.49;100.00;99280.03;4991508;28;21013;-52
2020/12/31 02:27:10;;;;;;;0.43;0.40;;;;;;;3.52;100.00;99284.38;4990963;28;20531;-51
2020/12/31 02:29:36;;;;;;;0.20;0.10;;;;;;;3.56;100.00;99281.69;4996266;28;20476;-52
2020/12/31 02:32:03;;;;;;;0.20;0.10;;;;;;;3.55;100.00;99281.69;4995174;28;20548;-52
2020/12/31 02:34:29;;;;;;;0.20;0.10;;;;;;;3.77;100.00;99284.81;4994816;28;20882;-53
2020/12/31 02:36:55;;;;;;;0.20;0.10;;;;;;;3.72;100.00;99277.03;4996146;28;20961;-51
2020/12/31 02:39:21;;;;;;;0.20;0.10;;;;;;;3.73;100.00;99272.63;4996379;28;20449;-53
2020/12/31 02:41:48;;;;;;;0.20;0.20;;;;;;;3.76;100.00;99281.31;4996063;28;20464;-52
2020/12/31 02:44:14;;;;;;;0.20;0.10;;;;;;;3.73;100.00;99272.63;4977331;28;20488;-53
2020/12/31 02:46:41;;;;;;;0.20;0.10;;;;;;;3.66;100.00;99276.25;4969697;28;21150;-52
2020/12/31 02:49:08;;;;;;;0.50;0.50;;;;;;;3.70;100.00;99277.91;4991557;28;20465;-52
2020/12/31 02:51:35;;;;;;;0.20;0.10;;;;;;;3.68;100.00;99267.44;4995544;28;20453;-52
2020/12/31 02:54:01;;;;;;;0.20;0.10;;;;;;;3.69;100.00;99268.31;4994757;28;20449;-53
2020/12/31 02:56:27;;;;;;;0.20;0.20;;;;;;;3.67;100.00;99265.72;4995452;28;20449;-52
2020/12/31 02:58:54;;;;;;;0.20;0.10;;;;;;;3.70;100.00;99256.91;4993637;28;21142;-52
2020/12/31 03:01:21;;;;;;;0.20;0.10;;;;;;;3.80;100.00;99261.09;4993883;28;20856;-52
2020/12/31 03:03:48;;;;;;;0.20;0.10;;;;;;;3.70;100.00;99252.53;4991857;28;20982;-52
2020/12/31 03:06:15;;;;;;;0.20;0.10;;;;;;;3.76;100.00;99251.56;4994345;28;20493;-52
2020/12/31 03:08:41;;;;;;;0.20;0.10;;;;;;;3.74;100.00;99246.34;4995439;28;20453;-53
2020/12/31 03:11:13;;;;;;;0.20;0.10;;;;;;;3.77;100.00;99243.63;4995435;28;20446;-52
2020/12/31 03:13:39;;;;;;;0.20;0.13;;;;;;;3.76;100.00;99247.16;4995473;28;20504;-52
2020/12/31 03:16:06;;;;;;;0.20;0.10;;;;;;;3.77;100.00;99251.53;4997082;28;20445;-52
2020/12/31 03:18:32;;;;;;;0.20;0.10;;;;;;;3.71;100.00;99242.91;4993748;28;20492;-52
2020/12/31 03:20:58;;;;;;;0.20;0.13;;;;;;;3.72;100.00;99242.88;4981250;28;20450;-53
2020/12/31 03:23:24;;;;;;;0.20;0.10;;;;;;;3.64;100.00;99236.88;4987099;28;20468;-52
2020/12/31 03:25:50;;;;;;;0.20;0.10;;;;;;;3.72;100.00;99239.38;4994090;28;20489;-52
2020/12/31 03:28:16;;;;;;;0.20;0.10;;;;;;;3.66;100.00;99244.72;4981579;28;20490;-52
2020/12/31 03:30:44;;;;;;;0.20;0.10;;;;;;;3.75;100.00;99228.81;4981341;28;20527;-52
2020/12/31 03:33:12;;;;;;;0.40;0.37;;;;;;;3.79;100.00;99228.69;4993364;28;20840;-53
2020/12/31 03:35:42;;;;;;;0.20;0.10;;;;;;;3.83;100.00;99230.38;4995126;28;20453;-52
2020/12/31 03:38:10;;;;;;;0.20;0.10;;;;;;;3.82;100.00;99223.38;4994601;28;20587;-52
2020/12/31 03:40:37;;;;;;;0.20;0.10;;;;;;;3.81;100.00;99221.66;4994702;28;20916;-52
2020/12/31 03:43:04;;;;;;;0.20;0.10;;;;;;;3.80;100.00;99219.91;4994858;28;20445;-52
2020/12/31 03:45:30;;;;;;;0.20;0.20;;;;;;;3.88;100.00;99217.16;4994855;28;20496;-51
2020/12/31 03:47:57;;;;;;;0.20;0.10;;;;;;;3.88;100.00;99216.31;4992748;28;20556;-52
2020/12/31 03:50:23;;;;;;;0.20;0.10;;;;;;;3.93;100.00;99212.69;4990966;28;20524;-53
2020/12/31 03:52:49;;;;;;;0.20;0.10;;;;;;;3.84;100.00;99207.63;4993430;28;20454;-52
2020/12/31 03:55:16;;;;;;;0.20;0.10;;;;;;;3.78;100.00;99197.19;4993183;28;20520;-52
2020/12/31 03:57:43;;;;;;;0.20;0.10;;;;;;;3.75;100.00;99197.25;4994355;28;20469;-52
2020/12/31 04:00:10;;;;;;;0.20;0.10;;;;;;;3.76;100.00;99194.59;4994529;28;20453;-52
2020/12/31 04:02:36;;;;;;;0.20;0.10;;;;;;;3.86;100.00;99190.06;4991073;28;20887;-52
2020/12/31 04:05:04;;;;;;;0.20;0.10;;;;;;;3.82;100.00;99194.47;4994537;28;20580;-52
2020/12/31 04:07:30;;;;;;;0.20;0.10;;;;;;;3.86;100.00;99197.94;4989934;28;20488;-53
2020/12/31 04:09:56;;;;;;;0.20;0.10;;;;;;;3.74;100.00;99183.25;4994406;28;20958;-52
2020/12/31 04:12:23;;;;;;;0.20;0.10;;;;;;;3.77;100.00;99190.22;4994455;28;20450;-53
2020/12/31 04:14:49;;;;;;;0.20;0.10;;;;;;;3.67;100.00;99186.88;4994501;28;20445;-52
2020/12/31 04:17:15;;;;;;;0.20;0.10;;;;;;;3.73;100.00;99181.53;4992033;28;20492;-53
2020/12/31 04:19:42;;;;;;;0.20;0.10;;;;;;;3.78;100.00;99181.44;4992660;28;20500;-52
2020/12/31 04:22:08;;;;;;;0.20;0.10;;;;;;;3.58;100.00;99180.94;4979231;28;20939;-52
2020/12/31 04:24:35;;;;;;;0.20;0.10;;;;;;;3.63;100.00;99173.84;4980723;28;20543;-53
2020/12/31 04:27:02;;;;;;;0.20;0.10;;;;;;;3.71;100.00;99170.19;4970889;28;20845;-52
2020/12/31 04:29:28;;;;;;;0.20;0.10;;;;;;;3.69;100.00;99171.09;4994096;28;20453;-53
2020/12/31 04:31:54;;;;;;;0.40;0.40;;;;;;;3.72;100.00;99174.53;4991571;28;20461;-52
2020/12/31 04:34:21;;;;;;;0.20;0.10;;;;;;;3.74;100.00;99166.63;4992550;28;20830;-53
2020/12/31 04:36:47;;;;;;;0.20;0.10;;;;;;;3.74;100.00;99172.75;4993962;28;20531;-52
2020/12/31 04:39:13;;;;;;;0.20;0.10;;;;;;;3.80;100.00;99163.88;4993698;28;21149;-53
2020/12/31 04:41:43;;;;;;;0.20;0.10;;;;;;;3.77;100.00;99162.16;4993829;28;20484;-52
2020/12/31 04:44:12;;;;;;;0.20;0.10;;;;;;;3.72;100.00;99158.78;4993797;28;20947;-52
2020/12/31 04:46:40;;;;;;;0.20;0.10;;;;;;;3.79;100.00;99162.13;4991622;28;20547;-52
2020/12/31 04:49:10;;;;;;;0.20;0.10;;;;;;;3.77;100.00;99162.16;4991663;28;20449;-53
2020/12/31 04:51:38;;;;;;;0.20;0.10;;;;;;;3.90;100.00;99157.53;4993869;28;20446;-52
2020/12/31 04:54:08;;;;;;;0.20;0.10;;;;;;;3.62;100.00;99156.34;4975435;28;20491;-52
2020/12/31 04:56:36;;;;;;;0.20;0.10;;;;;;;3.53;100.00;99154.75;4993699;28;20446;-52
2020/12/31 04:59:04;;;;;;;0.20;0.10;;;;;;;3.38;100.00;99148.00;4995249;28;20453;-52
2020/12/31 05:01:30;;;;;;;0.20;0.20;;;;;;;3.49;100.00;99139.94;4991858;28;20461;-52
2020/12/31 05:03:56;;;;;;;0.20;0.10;;;;;;;3.48;100.00;99144.34;4991165;28;20453;-52
2020/12/31 05:06:25;;;;;;;0.20;0.10;;;;;;;3.33;100.00;99143.75;4993657;28;20494;-52
2020/12/31 05:08:51;;;;;;;0.20;0.10;;;;;;;3.31;100.00;99153.41;4991296;28;20464;-52
2020/12/31 05:11:18;;;;;;;0.20;0.10;;;;;;;3.08;100.00;99144.19;4983903;28;20504;-51
2020/12/31 05:13:50;;;;;;;0.20;0.10;;;;;;;2.96;100.00;99134.75;4976148;28;20851;-52
2020/12/31 05:16:29;;;;;;;0.20;0.10;;;;;;;2.95;100.00;99135.63;4993776;28;20481;-52
2020/12/31 05:18:56;;;;;;;0.20;0.10;;;;;;;2.94;100.00;99140.91;4990186;28;21191;-51
2020/12/31 05:21:22;;;;;;;0.20;0.10;;;;;;;2.76;100.00;99139.47;4978625;28;20450;-52
2020/12/31 05:23:48;;;;;;;0.20;0.10;;;;;;;2.71;100.00;99130.78;4984340;28;20453;-52
2020/12/31 05:26:29;;;;;;;0.20;0.13;;;;;;;2.70;100.00;99136.91;4989359;28;20578;-52
2020/12/31 05:28:56;;;;;;;0.20;0.10;;;;;;;2.72;100.00;99129.88;4969040;28;21313;-52
2020/12/31 05:31:22;;;;;;;0.20;0.10;;;;;;;2.83;100.00;99135.84;4993944;28;20454;-51
2020/12/31 05:33:53;;;;;;;0.20;0.10;;;;;;;2.71;100.00;99135.16;4991641;28;20463;-52
2020/12/31 05:36:28;;;;;;;0.20;0.10;;;;;;;2.76;100.00;99131.59;4992735;28;20462;-52
2020/12/31 05:38:57;;;;;;;0.20;0.10;;;;;;;2.76;100.00;99134.22;4995017;28;20460;-52
2020/12/31 05:41:37;;;;;;;0.20;0.10;;;;;;;2.71;100.00;99125.53;5007883;28;20468;-52
2020/12/31 05:44:06;;;;;;;0.20;0.10;;;;;;;2.82;100.00;99133.25;5013335;28;20445;-53
2020/12/31 05:46:34;;;;;;;0.20;0.13;;;;;;;2.90;100.00;99131.38;5012438;28;20479;-52
2020/12/31 05:49:09;;;;;;;0.20;0.20;;;;;;;2.90;100.00;99131.38;5009845;28;20457;-53
2020/12/31 05:51:36;;;;;;;0.20;0.10;;;;;;;3.12;100.00;99127.47;5012833;28;20441;-52
2020/12/31 05:54:07;;;;;;;0.20;0.10;;;;;;;3.06;100.00;99124.97;5013030;28;20434;-52
2020/12/31 05:56:35;;;;;;;0.20;0.10;;;;;;;3.07;100.00;99123.19;5007146;28;20456;-52
2020/12/31 05:59:13;;;;;;;0.20;0.10;;;;;;;3.27;100.00;99132.44;5007865;28;20433;-55
2020/12/31 06:01:56;;;;;;;0.20;0.10;;;;;;;3.26;100.00;99129.84;5011124;28;20465;-52
2020/12/31 06:04:31;;;;;;;0.20;0.10;;;;;;;3.36;100.00;99122.69;5010694;28;20457;-52
2020/12/31 06:07:04;;;;;;;0.20;0.10;;;;;;;3.42;100.00;99125.19;5013153;28;20488;-52
2020/12/31 06:09:35;;;;;;;0.20;0.10;;;;;;;3.37;100.00;99127.03;5009390;28;20461;-52
2020/12/31 06:12:10;;;;;;;0.20;0.10;;;;;;;3.53;100.00;99131.09;5008480;28;20464;-54
2020/12/31 06:14:37;;;;;;;0.20;0.10;;;;;;;3.66;100.00;99126.47;5004142;28;20437;-52
2020/12/31 06:17:05;;;;;;;0.20;0.20;;;;;;;3.64;100.00;99125.66;5003995;28;20470;-52
2020/12/31 06:19:39;;;;;;;0.20;0.10;;;;;;;3.61;100.00;99128.34;4999254;28;20977;-53
2020/12/31 06:22:05;;;;;;;0.20;0.10;;;;;;;3.63;100.00;99134.44;4985274;28;20465;-52
2020/12/31 06:24:34;;;;;;;0.20;0.13;;;;;;;3.62;100.00;99136.19;5006002;28;20453;-52
2020/12/31 06:27:12;;;;;;;0.20;0.10;;;;;;;3.55;100.00;99131.94;4998328;28;20556;-52
2020/12/31 06:29:42;;;;;;;0.20;0.10;;;;;;;3.72;100.00;99139.53;5008327;28;20457;-52
2020/12/31 06:32:26;;;;;;;0.20;0.10;;;;;;;3.67;100.00;99133.47;5000649;28;20484;-54
2020/12/31 06:35:10;;;;;;;0.50;0.50;;;;;;;3.65;100.00;99140.53;5014783;28;20488;-53
2020/12/31 06:37:37;;;;;;;0.20;0.10;;;;;;;3.64;100.00;99131.78;4991098;28;20485;-52
2020/12/31 06:40:27;;;;;;;0.20;0.10;;;;;;;3.83;100.00;99132.25;5003381;28;20465;-53
2020/12/31 06:43:07;;;;;;;0.20;0.10;;;;;;;3.74;100.00;99137.72;5013865;28;20445;-52
2020/12/31 06:45:34;;;;;;;0.30;0.30;;;;;;;3.80;100.00;99138.44;4990390;28;20498;-52
2020/12/31 06:48:00;;;;;;;0.20;0.10;;;;;;;3.72;100.00;99143.00;5011641;28;20488;-53
2020/12/31 06:50:55;;;;;;;0.20;0.10;;;;;;;3.74;100.00;99133.34;5011018;28;20457;-52
2020/12/31 06:53:38;;;;;;;0.30;0.10;;;;;;;3.70;100.00;99138.66;4989856;28;20453;-53
2020/12/31 06:56:09;;;;;;;0.20;0.10;;;;;;;3.72;100.00;99126.38;5012022;28;20469;-54
2020/12/31 06:58:43;;;;;;;0.20;0.10;;;;;;;3.70;100.00;99134.28;5006067;28;20471;-52
2020/12/31 07:01:24;;;;;;;0.20;0.10;;;;;;;3.70;100.00;99131.66;5014602;28;20436;-53
2020/12/31 07:03:51;;;;;;;0.20;0.10;;;;;;;3.62;100.00;99128.31;5016092;28;20472;-52
2020/12/31 07:06:20;;;;;;;0.20;0.17;;;;;;;3.65;100.00;99130.00;5002525;28;20486;-52
2020/12/31 07:08:47;;;;;;;0.20;0.10;;;;;;;3.64;100.00;99123.88;4989106;28;20521;-52
2020/12/31 07:11:13;;;;;;;0.20;0.10;;;;;;;3.55;100.00;99122.28;4996503;28;20454;-52
2020/12/31 07:13:40;;;;;;;0.20;0.10;;;;;;;3.46;100.00;99129.50;4996118;28;20507;-52
2020/12/31 07:16:07;;;;;;;0.20;0.10;;;;;;;3.41;100.00;99121.69;4991470;28;20447;-52
2020/12/31 07:18:34;;;;;;;0.20;0.10;;;;;;;3.58;100.00;99118.75;4996008;28;20896;-52
2020/12/31 07:21:00;;;;;;;0.20;0.20;;;;;;;3.54;100.00;99124.94;4987757;28;20467;-52
2020/12/31 07:23:39;;;;;;;0.20;0.10;;;;;;;3.63;100.00;99111.66;4995636;28;20493;-52
2020/12/31 07:26:05;;;;;;;0.20;0.10;;;;;;;3.12;100.00;99118.72;4997428;28;21003;-52
2020/12/31 07:28:31;;;;;;;0.20;0.10;;;;;;;2.93;100.00;99120.81;5004437;28;20474;-51
2020/12/31 07:30:57;;;;;;;0.20;0.10;;;;;;;2.69;100.00;99111.56;4996147;28;20446;-51
2020/12/31 07:33:37;;;;;;;0.20;0.10;;;;;;;2.75;100.00;99110.63;4993436;28;20481;-52
2020/12/31 07:36:13;;;;;;;0.20;0.10;;;;;;;3.00;100.00;99114.56;4995421;28;20950;-52
2020/12/31 07:38:40;;;;;;;0.20;0.10;;;;;;;2.76;100.00;99117.59;4983018;28;20492;-53
2020/12/31 07:41:11;;;;;;;0.20;0.10;;;;;;;2.86;100.00;99108.66;4965951;28;20866;-52
2020/12/31 07:43:38;;;;;;;0.20;0.10;;;;;;;2.73;100.00;99110.63;4983890;28;20967;-51
2020/12/31 07:46:04;;;;;;;0.20;0.10;;;;;;;2.72;100.00;99111.53;4973908;28;20490;-52
2020/12/31 07:48:31;;;;;;;0.20;0.10;;;;;;;2.70;100.00;99115.94;4972718;28;20486;-52
2020/12/31 07:50:59;;;;;;;0.20;0.10;;;;;;;2.75;100.00;99110.63;4974606;28;20477;-51
2020/12/31 07:53:26;;;;;;;0.20;0.10;;;;;;;2.83;100.00;99111.34;4975387;28;20465;-52
2020/12/31 07:55:55;;;;;;;0.20;0.10;;;;;;;2.74;100.00;99108.88;4991917;28;20465;-52
2020/12/31 07:58:23;;;;;;;0.20;0.10;;;;;;;2.71;100.00;99114.16;4994546;28;20473;-52
2020/12/31 08:01:00;;;;;;;0.20;0.10;;;;;;;2.69;100.00;99114.19;4989536;28;20466;-52
2020/12/31 08:03:27;;;;;;;0.20;0.10;;;;;;;2.62;100.00;99107.34;4992208;28;20468;-52
2020/12/31 08:06:00;;;;;;;0.20;0.10;;;;;;;2.61;100.00;99102.97;4994435;28;20489;-52
2020/12/31 08:08:27;;;;;;;0.20;0.10;;;;;;;2.57;100.00;99103.91;4994556;28;20470;-51
2020/12/31 08:10:53;;;;;;;0.20;0.10;;;;;;;2.57;100.00;99099.50;4996690;28;20449;-52
2020/12/31 08:13:20;;;;;;;0.20;0.10;;;;;;;2.54;100.00;99099.56;4994543;28;20449;-52
2020/12/31 08:15:53;;;;;;;0.20;0.10;;;;;;;2.42;100.00;99098.88;4992423;28;20469;-52
2020/12/31 08:18:21;;;;;;;0.20;0.10;;;;;;;2.48;100.00;99096.19;4991138;28;20481;-51
2020/12/31 08:20:50;;;;;;;0.20;0.10;;;;;;;2.36;100.00;99098.09;4966113;28;20458;-51
2020/12/31 08:23:30;;;;;;;0.20;0.10;;;;;;;2.36;100.00;99087.63;4980042;28;20461;-51
2020/12/31 08:25:59;;;;;;;0.20;0.10;;;;;;;2.33;100.00;99092.91;4985747;28;20684;-51
2020/12/31 08:28:25;;;;;;;0.30;0.10;;;;;;;2.51;100.00;99085.66;4979214;28;20496;-52
2020/12/31 08:30:51;;;;;;;0.20;0.10;;;;;;;2.56;100.00;99089.91;4977106;28;20460;-52
2020/12/31 08:33:22;;;;;;;0.20;0.10;;;;;;;2.54;100.00;99090.84;4989622;28;20473;-51
2020/12/31 08:35:49;;;;;;;0.30;0.20;;;;;;;2.55;100.00;99095.19;4994874;28;20465;-51
2020/12/31 08:38:23;;;;;;;0.20;0.10;;;;;;;2.57;100.00;99096.88;4992477;28;20488;-52
2020/12/31 08:40:49;;;;;;;0.20;0.10;;;;;;;2.63;100.00;99096.81;4994388;28;20931;-52
2020/12/31 08:43:16;;;;;;;0.20;0.10;;;;;;;2.77;100.00;99093.97;4987353;28;20464;-51
2020/12/31 08:45:43;;;;;;;0.20;0.10;;;;;;;2.72;100.00;99089.66;4971128;28;20489;-51
2020/12/31 08:48:32;;;;;;;0.20;0.10;;;;;;;2.61;100.00;99088.09;4977557;28;20509;-52
2020/12/31 08:51:05;;;;;;;0.20;0.10;;;;;;;2.61;100.00;99093.34;4966587;28;20463;-51
2020/12/31 08:53:51;;;;;;;0.20;0.10;;;;;;;2.76;100.00;99091.38;4976019;28;20458;-51
2020/12/31 08:56:35;;;;;;;0.20;0.10;;;;;;;2.74;100.00;99098.38;4969153;28;20458;-51
2020/12/31 08:59:27;;;;;;;0.20;0.20;;;;;;;3.00;100.00;99097.94;4968971;28;20466;-51
2020/12/31 09:02:01;;;;;;;0.50;0.50;;;;;;;3.05;100.00;99094.34;4984130;28;20450;-50
2020/12/31 09:04:27;;;;;;;0.20;0.10;;;;;;;3.04;100.00;99090.00;4988532;28;20455;-51
2020/12/31 09:06:57;;;;;;;0.20;0.10;;;;;;;2.97;100.00;99098.88;4974641;28;21004;-51
2020/12/31 09:09:26;;;;;;;0.20;0.10;;;;;;;2.80;100.00;99096.53;4985777;28;20481;-51
2020/12/31 09:12:01;;;;;;;0.20;0.10;;;;;;;2.66;100.00;99091.50;4974930;28;20454;-50
2020/12/31 09:14:28;;;;;;;0.20;0.10;;;;;;;2.48;100.00;99091.81;4967810;28;20461;-50
2020/12/31 09:16:55;;;;;;;0.20;0.10;;;;;;;2.48;100.00;99089.19;4982993;28;20533;-51
2020/12/31 09:19:21;;;;;;;0.30;0.20;;;;;;;2.74;100.00;99088.78;4987482;28;20470;-51
2020/12/31 09:21:48;;;;;;;0.20;0.10;;;;;;;2.55;100.00;99082.94;4966131;28;20463;-51
2020/12/31 09:24:19;;;;;;;0.20;0.10;;;;;;;2.43;100.00;99093.63;4969566;28;20735;-51
2020/12/31 09:26:54;;;;;;;0.20;0.10;;;;;;;2.38;100.00;99088.44;4973873;28;20921;-50
2020/12/31 09:29:21;;;;;;;0.20;0.10;;;;;;;2.41;100.00;99099.78;4974030;28;20466;-50
2020/12/31 09:31:48;;;;;;;0.20;0.20;;;;;;;2.45;100.00;99089.22;4973214;28;20465;-51
2020/12/31 09:34:15;;;;;;;0.20;0.10;;;;;;;2.52;100.00;99083.00;4975289;28;20473;-50
2020/12/31 09:36:41;;;;;;;0.20;0.10;;;;;;;2.54;100.00;99089.06;4989431;28;21062;-50
2020/12/31 09:39:08;;;;;;;0.20;0.10;;;;;;;2.50;100.00;99079.53;4974076;28;20474;-50
2020/12/31 09:41:34;;;;;;;0.20;0.10;;;;;;;2.62;100.00;99087.22;4971907;28;20465;-50
2020/12/31 09:44:01;;;;;;;0.20;0.10;;;;;;;2.62;100.00;99087.22;4971617;28;20970;-50
2020/12/31 09:46:27;;;;;;;0.20;0.10;;;;;;;2.82;100.00;99086.88;4988624;28;20496;-51
2020/12/31 09:48:54;;;;;;;0.20;0.10;;;;;;;2.68;100.00;99079.22;4987335;28;20467;-51
2020/12/31 09:51:20;;;;;;;0.20;0.10;;;;;;;2.95;100.00;99075.28;4987721;28;20458;-51
2020/12/31 09:53:49;;;;;;;0.20;0.10;;;;;;;2.81;100.00;99077.28;4985123;28;20799;-52
2020/12/31 09:56:15;;;;;;;0.20;0.10;;;;;;;2.73;100.00;99070.41;4994786;28;20464;-51
2020/12/31 09:58:42;;;;;;;0.20;0.10;;;;;;;2.60;100.00;99067.13;4996796;28;20457;-51
2020/12/31 10:01:08;;;;;;;0.30;0.20;;;;;;;2.69;100.00;99080.09;4997811;28;20503;-51
2020/12/31 10:03:34;;;;;;;0.20;0.10;;;;;;;2.62;100.00;99068.00;4996877;28;20453;-51
2020/12/31 10:06:01;;;;;;;1.37;1.37;;;;;;;2.70;100.00;99065.22;4996589;28;20489;-50
2020/12/31 10:08:28;;;;;;;0.20;0.10;;;;;;;2.78;100.00;99064.22;4996856;28;20524;-51
2020/12/31 10:10:55;;;;;;;0.20;0.10;;;;;;;2.75;100.00;99066.91;4996500;28;21065;-51
2020/12/31 10:13:21;;;;;;;0.20;0.10;;;;;;;2.74;100.00;99059.03;4996331;28;20453;-51
2020/12/31 10:15:47;;;;;;;0.30;0.10;;;;;;;2.83;100.00;99061.50;5001155;28;20449;-51
2020/12/31 10:18:13;;;;;;;0.20;0.10;;;;;;;2.85;100.00;99063.19;5004105;28;20816;-51
2020/12/31 10:20:39;;;;;;;0.20;0.20;;;;;;;2.68;100.00;99058.25;4988675;28;20450;-51
2020/12/31 10:23:05;;;;;;;0.20;0.10;;;;;;;2.76;100.00;99052.03;4982706;28;20505;-51
2020/12/31 10:25:31;;;;;;;0.20;0.10;;;;;;;2.95;100.00;99056.03;4995761;28;20543;-51
2020/12/31 10:27:58;;;;;;;0.20;0.10;;;;;;;2.94;100.00;99051.69;4990581;28;20473;-51
2020/12/31 10:30:25;;;;;;;0.20;0.10;;;;;;;3.07;100.00;99047.94;4996109;28;20466;-52
2020/12/31 10:32:51;;;;;;;0.20;0.10;;;;;;;2.95;100.00;99048.16;4996279;28;20449;-51
2020/12/31 10:35:17;;;;;;;0.20;0.10;;;;;;;3.17;100.00;99051.28;4995957;28;20943;-51
2020/12/31 10:37:43;;;;;;;0.20;0.10;;;;;;;2.96;100.00;99044.66;4996103;28;20493;-51
2020/12/31 10:40:10;;;;;;;0.20;0.10;;;;;;;3.27;100.00;99037.06;4983294;28;20813;-51
2020/12/31 10:42:36;;;;;;;0.20;0.10;;;;;;;2.98;100.00;99040.22;4995737;28;20829;-51
2020/12/31 10:45:03;;;;;;;0.20;0.10;;;;;;;3.08;100.00;99036.56;4983074;28;20457;-51
2020/12/31 10:47:29;;;;;;;0.20;0.10;;;;;;;3.18;100.00;99037.25;4995387;28;21061;-52
2020/12/31 10:49:55;;;;;;;0.20;0.10;;;;;;;3.39;100.00;99028.06;4995945;28;20457;-51
2020/12/31 10:52:21;;;;;;;0.20;0.10;;;;;;;3.26;100.00;99025.69;4994748;28;20454;-52
2020/12/31 10:54:47;;;;;;;0.20;0.10;;;;;;;3.53;100.00;99026.03;4969981;28;20453;-51
2020/12/31 10:57:17;;;;;;;0.20;0.10;;;;;;;3.53;100.00;99015.53;4995627;28;20880;-52
2020/12/31 10:59:43;;;;;;;0.20;0.10;;;;;;;3.28;100.00;99012.53;4995693;28;20449;-51
2020/12/31 11:02:09;;;;;;;0.20;0.10;;;;;;;3.39;100.00;99014.94;4995413;28;20465;-52
2020/12/31 11:04:36;;;;;;;0.20;0.20;;;;;;;3.36;100.00;99010.63;4995658;28;20460;-51
2020/12/31 11:07:02;;;;;;;0.20;0.10;;;;;;;3.41;100.00;99010.53;4994407;28;20580;-52
2020/12/31 11:09:29;;;;;;;0.20;0.13;;;;;;;3.25;100.00;99010.81;4995343;28;20515;-51
2020/12/31 11:11:55;;;;;;;0.20;0.10;;;;;;;3.34;100.00;99003.69;4995307;28;20454;-51
2020/12/31 11:14:21;;;;;;;0.20;0.10;;;;;;;3.25;100.00;99007.34;4995401;28;20962;-51
2020/12/31 11:16:50;;;;;;;0.20;0.10;;;;;;;3.05;100.00;99002.50;4995153;28;20472;-52
2020/12/31 11:19:17;;;;;;;0.20;0.10;;;;;;;3.14;100.00;99006.69;4995353;28;20454;-52
2020/12/31 11:21:43;;;;;;;0.20;0.10;;;;;;;3.17;100.00;98991.75;4978246;28;20901;-51
2020/12/31 11:24:09;;;;;;;0.20;0.17;;;;;;;3.05;100.00;98996.38;4987110;28;20453;-51
2020/12/31 11:26:35;;;;;;;0.20;0.10;;;;;;;2.94;100.00;98994.81;4989253;28;20497;-51
2020/12/31 11:29:03;;;;;;;0.30;0.30;;;;;;;2.95;100.00;98995.69;4995087;28;20453;-51
2020/12/31 11:31:30;;;;;;;0.20;0.10;;;;;;;2.98;100.00;98990.38;4994957;28;20457;-51
2020/12/31 11:34:00;;;;;;;0.20;0.10;;;;;;;3.03;100.00;98980.66;4994828;28;20811;-51
2020/12/31 11:36:27;;;;;;;0.20;0.10;;;;;;;2.97;100.00;98976.38;4994992;28;20860;-51
2020/12/31 11:38:54;;;;;;;0.20;0.10;;;;;;;3.07;100.00;98979.69;4994893;28;20461;-52